Etusivu
METAR-TAF:

METAR-TAF

Lentoasemat :

Black River Falls, Wisconsin, Yhdysvallat

Leveyspiiri: 44-15-03N, Pituuspiiri: 090-51-19W, korkeus merenpinnasta: 255 m

Tämänhetkinen sää

Tämä raportti tehtiin 33 minuuttia sitten, kello 20.15 UTC
Tuuli 7 kn pohjoisesta puuskistuen 14 kn:hen
Lämpötila -2°C
Kosteus 63%
Ilmanpaine 1022 hPa
Näkyvyys: 16.1 km
Hajanaisia pilviä 2900 ft:n korkeudessa
Hajonneita pilviä 3500 ft:n korkeudessa
Pilvistä 4100 ft:n korkeudessa
heikkoa lumisadetta

METAR: KBCK 262015Z AUTO 35007G14KT 10SM -SN SCT029 BKN035 OVC041 M02/M08 A3017 RMK AO2 T10211081

Aika: 14:48 (20:48 UTC)


TAF: puuttuu

Säähavainnot ja -ennusteet yli 4000 lentoasemalta (METAR- ja TAF-raportit).

Käytössä olevat sääasemat on merkitty karttaan keltaisilla ja punaisilla pisteillä.

Aseta hiiri pisteen päälle nähdäksesi sääaseman nimen.

Klikkaa sitten nähdäksesi säähavainnot ja -ennusteet.

Kartan vaihtaminen: klikkaa mustalla rastilla varustettuja vihreitä pisteitä, niin voit zoomata sisään; viivalla varustettua vihreää pistettä, niin voit zoomata ulos tai vihreitä nuolia, niin pääset viereisille kartoille.


METAR-TAF: